Terminal Aerodrome Forecast
Issued by NWS

Home | Current Version | Previous Version | Text Only | Print | Product List | Glossary On
Versions: 1 2 3 4 5 6 7 8 9 10 11 12 13 14 15
591
FTUS43 KMPX 251741
TAFRNH
TAF
KRNH 251741Z 2518/2618 28005KT P6SM SKC
     FM252300 24005KT P6SM SKC
     FM260400 19003KT P6SM SCT250
     FM261400 24007KT P6SM SCT040 BKN100=

USA.gov is the U.S. government's official web portal to all federal, state and local government web resources and services.